Time,TemperatureF,DewpointF,PressureIn,WindDirection,WindDirectionDegrees,WindSpeedMPH,WindSpeedGustMPH,Humidity,HourlyPrecipIn,Conditions,Clouds,dailyrainin,SolarRadiationWatts/m^2,SoftwareType,DateUTC
2013-05-30 00:22:00,61.0,61.0,-100.00,ESE,112,3.0,11.0,99,0.15,,,0.40,0.000000,,2013-05-30 05:22:00,
2013-05-30 00:32:00,61.0,61.0,-100.00,ESE,112,3.0,11.0,99,0.15,,,0.40,0.000000,,2013-05-30 05:32:00,
2013-05-30 00:43:00,61.0,61.0,-100.00,ESE,112,3.0,11.0,99,0.15,,,0.40,0.000000,,2013-05-30 05:43:00,
2013-05-30 00:52:00,61.0,61.0,-100.00,ESE,112,3.0,11.0,99,0.15,,,0.40,0.000000,,2013-05-30 05:52:00,
2013-05-30 01:01:00,61.0,61.0,-100.00,ESE,112,3.0,11.0,99,0.15,,,0.40,0.000000,,2013-05-30 06:01:00,
2013-05-30 01:22:00,61.0,60.0,-100.00,SW,221,4.0,9.0,98,0.00,,,0.40,0.000000,,2013-05-30 06:22:00,
2013-05-30 01:32:00,61.0,60.0,-100.00,SW,221,4.0,9.0,98,0.00,,,0.40,0.000000,,2013-05-30 06:32:00,
2013-05-30 01:42:00,61.0,60.0,-100.00,SW,221,4.0,9.0,98,0.00,,,0.40,0.000000,,2013-05-30 06:42:00,
2013-05-30 01:52:00,61.0,60.0,-100.00,SW,221,4.0,9.0,98,0.00,,,0.40,0.000000,,2013-05-30 06:52:00,
2013-05-30 02:01:00,61.0,60.0,-100.00,SW,221,4.0,9.0,98,0.00,,,0.40,0.000000,,2013-05-30 07:01:00,
2013-05-30 02:02:00,60.0,60.0,-100.00,SSW,209,3.0,8.0,100,0.00,,,0.40,0.000000,,2013-05-30 07:02:00,
2013-05-30 02:22:00,60.0,60.0,-100.00,SSW,209,3.0,8.0,100,0.00,,,0.40,0.000000,,2013-05-30 07:22:00,
2013-05-30 02:32:00,60.0,60.0,-100.00,SSW,209,3.0,8.0,100,0.00,,,0.40,0.000000,,2013-05-30 07:32:00,
2013-05-30 02:42:00,60.0,60.0,-100.00,SSW,209,3.0,8.0,100,0.00,,,0.40,0.000000,,2013-05-30 07:42:00,
2013-05-30 02:52:00,60.0,60.0,-100.00,SSW,209,3.0,8.0,100,0.00,,,0.40,0.000000,,2013-05-30 07:52:00,
2013-05-30 03:22:00,59.0,59.0,-100.00,SW,220,3.0,8.0,100,0.00,,,0.40,0.000000,,2013-05-30 08:22:00,
2013-05-30 03:32:00,59.0,59.0,-100.00,SW,220,3.0,8.0,100,0.00,,,0.40,0.000000,,2013-05-30 08:32:00,
2013-05-30 03:42:00,59.0,59.0,-100.00,SW,220,3.0,8.0,100,0.00,,,0.40,0.000000,,2013-05-30 08:42:00,
2013-05-30 03:53:00,59.0,59.0,-100.00,SW,220,3.0,8.0,100,0.00,,,0.40,0.000000,,2013-05-30 08:53:00,
2013-05-30 04:01:00,59.0,59.0,-100.00,SW,220,3.0,8.0,100,0.00,,,0.40,0.000000,,2013-05-30 09:01:00,
2013-05-30 04:02:00,59.0,59.0,-100.00,SSW,205,2.0,8.0,99,0.00,,,0.40,0.000000,,2013-05-30 09:02:00,
2013-05-30 04:22:00,59.0,59.0,-100.00,SSW,205,2.0,8.0,99,0.00,,,0.40,0.000000,,2013-05-30 09:22:00,
2013-05-30 04:33:00,59.0,59.0,-100.00,SSW,205,2.0,8.0,99,0.00,,,0.40,0.000000,,2013-05-30 09:33:00,
2013-05-30 04:43:00,59.0,59.0,-100.00,SSW,205,2.0,8.0,99,0.00,,,0.40,0.000000,,2013-05-30 09:43:00,
2013-05-30 04:53:00,59.0,59.0,-100.00,SSW,205,2.0,8.0,99,0.00,,,0.40,0.000000,,2013-05-30 09:53:00,
2013-05-30 05:02:00,60.0,60.0,-100.00,South,176,3.0,8.0,99,0.01,,,0.41,0.000000,,2013-05-30 10:02:00,
2013-05-30 05:23:00,60.0,60.0,-100.00,South,176,3.0,8.0,99,0.01,,,0.41,0.000000,,2013-05-30 10:23:00,
2013-05-30 05:33:00,60.0,60.0,-100.00,South,176,3.0,8.0,99,0.01,,,0.41,0.000000,,2013-05-30 10:33:00,
2013-05-30 05:42:00,60.0,60.0,-100.00,South,176,3.0,8.0,99,0.01,,,0.41,0.000000,,2013-05-30 10:42:00,
2013-05-30 05:52:00,60.0,60.0,-100.00,South,176,3.0,8.0,99,0.01,,,0.41,0.000000,,2013-05-30 10:52:00,
2013-05-30 06:22:00,60.0,60.0,-100.00,SSE,156,2.0,7.0,100,0.00,,,0.41,9.000000,,2013-05-30 11:22:00,
2013-05-30 06:32:00,60.0,60.0,-100.00,SSE,156,2.0,7.0,100,0.00,,,0.41,9.000000,,2013-05-30 11:32:00,
2013-05-30 06:42:00,60.0,60.0,-100.00,SSE,156,2.0,7.0,100,0.00,,,0.41,9.000000,,2013-05-30 11:42:00,
2013-05-30 06:52:00,60.0,60.0,-100.00,SSE,156,2.0,7.0,100,0.00,,,0.41,9.000000,,2013-05-30 11:52:00,
2013-05-30 07:01:00,60.0,60.0,-100.00,SSE,156,2.0,7.0,100,0.00,,,0.41,9.000000,,2013-05-30 12:01:00,
2013-05-30 07:22:00,64.0,63.0,-100.00,South,184,3.0,7.0,96,0.00,,,0.41,114.000000,,2013-05-30 12:22:00,
2013-05-30 07:32:00,64.0,63.0,-100.00,South,184,3.0,7.0,96,0.00,,,0.41,114.000000,,2013-05-30 12:32:00,
2013-05-30 07:42:00,64.0,63.0,-100.00,South,184,3.0,7.0,96,0.00,,,0.41,114.000000,,2013-05-30 12:42:00,
2013-05-30 07:52:00,64.0,63.0,-100.00,South,184,3.0,7.0,96,0.00,,,0.41,114.000000,,2013-05-30 12:52:00,
2013-05-30 08:01:00,64.0,63.0,-100.00,South,184,3.0,7.0,96,0.00,,,0.41,114.000000,,2013-05-30 13:01:00,
2013-05-30 09:22:00,72.0,65.0,-100.00,South,178,5.0,12.0,80,-99.99,,,0.41,447.000000,,2013-05-30 14:22:00,
2013-05-30 09:32:00,72.0,65.0,-100.00,South,178,5.0,12.0,80,-99.99,,,0.41,447.000000,,2013-05-30 14:32:00,
2013-05-30 09:42:00,72.0,65.0,-100.00,South,178,5.0,12.0,80,-99.99,,,0.41,447.000000,,2013-05-30 14:42:00,
2013-05-30 09:52:00,72.0,65.0,-100.00,South,178,5.0,12.0,80,-99.99,,,0.41,447.000000,,2013-05-30 14:52:00,
2013-05-30 10:01:00,72.0,65.0,-100.00,South,178,5.0,12.0,80,-99.99,,,0.41,447.000000,,2013-05-30 15:01:00,
2013-05-30 10:02:00,75.0,66.0,-100.00,South,178,6.0,14.0,73,0.00,,,0.41,640.000000,,2013-05-30 15:02:00,
2013-05-30 10:22:00,75.0,66.0,-100.00,South,178,6.0,14.0,73,0.00,,,0.41,640.000000,,2013-05-30 15:22:00,
2013-05-30 10:33:00,75.0,66.0,-100.00,South,178,6.0,14.0,73,0.00,,,0.41,640.000000,,2013-05-30 15:33:00,
2013-05-30 10:43:00,75.0,66.0,-100.00,South,178,6.0,14.0,73,0.00,,,0.41,640.000000,,2013-05-30 15:43:00,
2013-05-30 10:53:00,75.0,66.0,-100.00,South,178,6.0,14.0,73,0.00,,,0.41,640.000000,,2013-05-30 15:53:00,
2013-05-30 11:02:00,75.0,65.0,-100.00,South,189,6.0,14.0,72,0.00,,,0.41,482.000000,,2013-05-30 16:02:00,
2013-05-30 11:23:00,75.0,65.0,-100.00,South,189,6.0,14.0,72,0.00,,,0.41,482.000000,,2013-05-30 16:23:00,
2013-05-30 11:33:00,75.0,65.0,-100.00,South,189,6.0,14.0,72,0.00,,,0.41,482.000000,,2013-05-30 16:33:00,
2013-05-30 11:42:00,75.0,65.0,-100.00,South,189,6.0,14.0,72,0.00,,,0.41,482.000000,,2013-05-30 16:42:00,
2013-05-30 11:53:00,75.0,65.0,-100.00,South,189,6.0,14.0,72,0.00,,,0.41,482.000000,,2013-05-30 16:53:00,
2013-05-30 12:02:00,76.0,65.0,-100.00,South,188,6.0,16.0,70,0.00,,,0.41,662.000000,,2013-05-30 17:02:00,
2013-05-30 12:22:00,76.0,65.0,-100.00,South,188,6.0,16.0,70,0.00,,,0.41,662.000000,,2013-05-30 17:22:00,
2013-05-30 12:32:00,76.0,65.0,-100.00,South,188,6.0,16.0,70,0.00,,,0.41,662.000000,,2013-05-30 17:32:00,
2013-05-30 12:42:00,76.0,65.0,-100.00,South,188,6.0,16.0,70,0.00,,,0.41,662.000000,,2013-05-30 17:42:00,
2013-05-30 12:52:00,76.0,65.0,-100.00,South,188,6.0,16.0,70,0.00,,,0.41,662.000000,,2013-05-30 17:52:00,
2013-05-30 13:22:00,81.0,67.0,-100.00,South,171,4.0,13.0,63,0.00,,,0.41,718.000000,,2013-05-30 18:22:00,
2013-05-30 13:32:00,81.0,67.0,-100.00,South,171,4.0,13.0,63,0.00,,,0.41,718.000000,,2013-05-30 18:32:00,
2013-05-30 13:43:00,81.0,67.0,-100.00,South,171,4.0,13.0,63,0.00,,,0.41,718.000000,,2013-05-30 18:43:00,
2013-05-30 13:52:00,81.0,67.0,-100.00,South,171,4.0,13.0,63,0.00,,,0.41,718.000000,,2013-05-30 18:52:00,
2013-05-30 14:01:00,81.0,67.0,-100.00,South,171,4.0,13.0,63,0.00,,,0.41,718.000000,,2013-05-30 19:01:00,
2013-05-30 14:23:00,82.0,63.0,-100.00,South,173,7.0,21.0,53,0.00,,,0.41,843.000000,,2013-05-30 19:23:00,
2013-05-30 14:32:00,82.0,63.0,-100.00,South,173,7.0,21.0,53,0.00,,,0.41,843.000000,,2013-05-30 19:32:00,
2013-05-30 14:42:00,82.0,63.0,-100.00,South,173,7.0,21.0,53,0.00,,,0.41,843.000000,,2013-05-30 19:42:00,
2013-05-30 14:53:00,82.0,63.0,-100.00,South,173,7.0,21.0,53,0.00,,,0.41,843.000000,,2013-05-30 19:53:00,
2013-05-30 15:01:00,82.0,63.0,-100.00,South,173,7.0,21.0,53,0.00,,,0.41,843.000000,,2013-05-30 20:01:00,
2013-05-30 15:23:00,81.0,61.0,-100.00,SSE,168,7.0,15.0,51,0.00,,,0.41,644.000000,,2013-05-30 20:23:00,
2013-05-30 15:33:00,81.0,61.0,-100.00,SSE,168,7.0,15.0,51,0.00,,,0.41,644.000000,,2013-05-30 20:33:00,
2013-05-30 15:42:00,81.0,61.0,-100.00,SSE,168,7.0,15.0,51,0.00,,,0.41,644.000000,,2013-05-30 20:42:00,
2013-05-30 15:52:00,81.0,61.0,-100.00,SSE,168,7.0,15.0,51,0.00,,,0.41,644.000000,,2013-05-30 20:52:00,
2013-05-30 16:01:00,81.0,61.0,-100.00,SSE,168,7.0,15.0,51,0.00,,,0.41,644.000000,,2013-05-30 21:01:00,
2013-05-30 16:02:00,77.0,61.0,-100.00,SSE,153,6.0,17.0,58,0.00,,,0.41,287.000000,,2013-05-30 21:02:00,
2013-05-30 16:22:00,77.0,61.0,-100.00,SSE,153,6.0,17.0,58,0.00,,,0.41,287.000000,,2013-05-30 21:22:00,
2013-05-30 16:33:00,77.0,61.0,-100.00,SSE,153,6.0,17.0,58,0.00,,,0.41,287.000000,,2013-05-30 21:33:00,
2013-05-30 16:43:00,77.0,61.0,-100.00,SSE,153,6.0,17.0,58,0.00,,,0.41,287.000000,,2013-05-30 21:43:00,
2013-05-30 16:53:00,77.0,61.0,-100.00,SSE,153,6.0,17.0,58,0.00,,,0.41,287.000000,,2013-05-30 21:53:00,
2013-05-30 17:02:00,63.0,62.0,-100.00,SE,138,2.0,18.0,98,0.19,,,0.60,11.000000,,2013-05-30 22:02:00,
2013-05-30 17:23:00,63.0,62.0,-100.00,SE,138,2.0,18.0,98,0.19,,,0.60,11.000000,,2013-05-30 22:23:00,
2013-05-30 17:33:00,63.0,62.0,-100.00,SE,138,2.0,18.0,98,0.19,,,0.60,11.000000,,2013-05-30 22:33:00,
2013-05-30 17:42:00,63.0,62.0,-100.00,SE,138,2.0,18.0,98,0.19,,,0.60,11.000000,,2013-05-30 22:42:00,
2013-05-30 17:52:00,63.0,62.0,-100.00,SE,138,2.0,18.0,98,0.19,,,0.60,11.000000,,2013-05-30 22:52:00,
2013-05-30 18:22:00,64.0,64.0,-100.00,SE,132,3.0,7.0,99,0.00,,,0.60,29.000000,,2013-05-30 23:22:00,
2013-05-30 18:32:00,64.0,64.0,-100.00,SE,132,3.0,7.0,99,0.00,,,0.60,29.000000,,2013-05-30 23:32:00,
2013-05-30 18:42:00,64.0,64.0,-100.00,SE,132,3.0,7.0,99,0.00,,,0.60,29.000000,,2013-05-30 23:42:00,
2013-05-30 18:52:00,64.0,64.0,-100.00,SE,132,3.0,7.0,99,0.00,,,0.60,29.000000,,2013-05-30 23:52:00,
2013-05-30 19:01:00,64.0,64.0,-100.00,SE,132,3.0,7.0,99,0.00,,,0.60,29.000000,,2013-05-31 00:01:00,
2013-05-30 19:22:00,67.0,66.0,-100.00,SSE,148,3.0,10.0,95,0.00,,,0.60,125.000000,,2013-05-31 00:22:00,
2013-05-30 19:32:00,67.0,66.0,-100.00,SSE,148,3.0,10.0,95,0.00,,,0.60,125.000000,,2013-05-31 00:32:00,
2013-05-30 19:42:00,67.0,66.0,-100.00,SSE,148,3.0,10.0,95,0.00,,,0.60,125.000000,,2013-05-31 00:42:00,
2013-05-30 19:52:00,67.0,66.0,-100.00,SSE,148,3.0,10.0,95,0.00,,,0.60,125.000000,,2013-05-31 00:52:00,
2013-05-30 20:01:00,67.0,66.0,-100.00,SSE,148,3.0,10.0,95,0.00,,,0.60,125.000000,,2013-05-31 01:01:00,
2013-05-30 20:02:00,66.0,65.0,-100.00,SE,144,4.0,10.0,98,0.01,,,0.61,28.000000,,2013-05-31 01:02:00,
2013-05-30 20:21:00,66.0,65.0,-100.00,SE,144,4.0,10.0,98,0.01,,,0.61,28.000000,,2013-05-31 01:21:00,
2013-05-30 20:32:00,66.0,65.0,-100.00,SE,144,4.0,10.0,98,0.01,,,0.61,28.000000,,2013-05-31 01:32:00,
2013-05-30 20:42:00,66.0,65.0,-100.00,SE,144,4.0,10.0,98,0.01,,,0.61,28.000000,,2013-05-31 01:42:00,
2013-05-30 20:52:00,66.0,65.0,-100.00,SE,144,4.0,10.0,98,0.01,,,0.61,28.000000,,2013-05-31 01:52:00,
2013-05-30 21:22:00,65.0,64.0,-100.00,SE,139,3.0,8.0,98,0.00,,,0.61,4.000000,,2013-05-31 02:22:00,
2013-05-30 21:32:00,65.0,64.0,-100.00,SE,139,3.0,8.0,98,0.00,,,0.61,4.000000,,2013-05-31 02:32:00,
2013-05-30 21:42:00,65.0,64.0,-100.00,SE,139,3.0,8.0,98,0.00,,,0.61,4.000000,,2013-05-31 02:42:00,
2013-05-30 21:52:00,65.0,64.0,-100.00,SE,139,3.0,8.0,98,0.00,,,0.61,4.000000,,2013-05-31 02:52:00,
2013-05-30 22:01:00,65.0,64.0,-100.00,SE,139,3.0,8.0,98,0.00,,,0.61,4.000000,,2013-05-31 03:01:00,
2013-05-30 22:02:00,65.0,65.0,-100.00,SE,128,3.0,8.0,99,0.00,,,0.54,0.000000,,2013-05-31 03:02:00,
2013-05-30 22:22:00,65.0,65.0,-100.00,SE,128,3.0,8.0,99,0.00,,,0.54,0.000000,,2013-05-31 03:22:00,
2013-05-30 22:33:00,65.0,65.0,-100.00,SE,128,3.0,8.0,99,0.00,,,0.54,0.000000,,2013-05-31 03:33:00,
2013-05-30 22:43:00,65.0,65.0,-100.00,SE,128,3.0,8.0,99,0.00,,,0.54,0.000000,,2013-05-31 03:43:00,
2013-05-30 22:53:00,65.0,65.0,-100.00,SE,128,3.0,8.0,99,0.00,,,0.54,0.000000,,2013-05-31 03:53:00,
2013-05-30 23:02:00,64.0,63.0,-100.00,SE,136,5.0,12.0,97,0.00,,,0.36,0.000000,,2013-05-31 04:02:00,
2013-05-30 23:23:00,64.0,63.0,-100.00,SE,136,5.0,12.0,97,0.00,,,0.36,0.000000,,2013-05-31 04:23:00,
2013-05-30 23:33:00,64.0,63.0,-100.00,SE,136,5.0,12.0,97,0.00,,,0.36,0.000000,,2013-05-31 04:33:00,
2013-05-30 23:42:00,64.0,63.0,-100.00,SE,136,5.0,12.0,97,0.00,,,0.36,0.000000,,2013-05-31 04:42:00,
2013-05-30 23:53:00,64.0,63.0,-100.00,SE,136,5.0,12.0,97,0.00,,,0.36,0.000000,,2013-05-31 04:53:00,